createdAt,value
2022-10-15T00:07:31.013Z,3.05
2022-10-15T00:18:30.512Z,3.05
2022-10-15T00:29:32.525Z,3.04
2022-10-15T00:40:34.901Z,3.04
2022-10-15T00:51:31.746Z,3.04
2022-10-15T01:02:35.050Z,3.04
2022-10-15T01:13:37.154Z,3.03
2022-10-15T01:24:36.406Z,3.03
2022-10-15T01:35:37.519Z,3.03
2022-10-15T01:46:15.146Z,3.01
2022-10-15T01:56:53.697Z,3.00
2022-10-15T02:07:51.964Z,3.00
2022-10-15T02:18:55.047Z,3.00
2022-10-15T02:29:56.393Z,3.00
2022-10-15T02:40:57.836Z,3.00
2022-10-15T02:51:37.813Z,2.99
2022-10-15T03:02:19.315Z,2.98
2022-10-15T03:13:19.942Z,2.99
2022-10-15T03:23:58.546Z,2.98
2022-10-15T03:34:38.240Z,2.97
2022-10-15T03:45:41.281Z,2.98
2022-10-15T03:56:44.488Z,2.98
2022-10-15T04:07:48.252Z,2.98
2022-10-15T04:18:50.499Z,2.98
2022-10-15T04:29:54.495Z,2.98
2022-10-15T04:40:58.237Z,2.98
2022-10-15T04:51:56.474Z,2.98
2022-10-15T05:03:00.168Z,2.98
2022-10-15T05:14:02.308Z,2.97
2022-10-15T05:25:06.364Z,2.97
2022-10-15T05:36:09.916Z,2.98
2022-10-15T05:47:09.585Z,2.98
2022-10-15T05:58:11.643Z,2.98
2022-10-15T06:09:15.251Z,2.99
2022-10-15T06:20:16.981Z,3.00
2022-10-15T06:31:15.026Z,3.00
2022-10-15T06:42:17.569Z,3.02
2022-10-15T06:53:20.516Z,3.04
2022-10-15T07:04:23.227Z,3.06
2022-10-15T07:15:22.881Z,3.07
2022-10-15T07:25:59.982Z,3.06
2022-10-15T07:37:00.837Z,3.07
2022-10-15T07:47:54.887Z,3.08
2022-10-15T07:58:42.826Z,3.09
2022-10-15T08:09:40.346Z,3.10
2022-10-15T08:20:22.432Z,3.10
2022-10-15T08:31:10.443Z,3.11
2022-10-15T08:41:47.993Z,3.12
2022-10-15T08:52:49.915Z,3.13
2022-10-15T09:03:46.598Z,3.14
2022-10-15T09:14:48.454Z,3.18
2022-10-15T09:25:48.849Z,3.25
2022-10-15T09:36:50.282Z,3.25
2022-10-15T09:47:39.773Z,3.29
2022-10-15T09:58:15.732Z,3.34
2022-10-15T10:09:10.393Z,3.36
2022-10-15T10:20:10.930Z,3.36
2022-10-15T10:31:03.368Z,3.31
2022-10-15T10:41:39.114Z,3.31
2022-10-15T10:52:38.222Z,3.30
2022-10-15T11:03:38.182Z,3.31
2022-10-15T11:14:11.875Z,3.30
2022-10-15T11:25:10.132Z,3.34
2022-10-15T11:36:08.566Z,3.34
2022-10-15T11:46:50.330Z,3.37
2022-10-15T11:57:39.819Z,3.32
2022-10-15T12:08:14.099Z,3.35
2022-10-15T12:19:13.276Z,3.33
2022-10-15T12:30:13.197Z,3.33
2022-10-15T12:41:08.251Z,3.33
2022-10-15T12:52:09.770Z,3.33
2022-10-15T13:03:10.944Z,3.32
2022-10-15T13:14:09.044Z,3.33
2022-10-15T13:25:09.581Z,3.32
2022-10-15T13:36:08.040Z,3.32
2022-10-15T13:47:08.335Z,3.33
2022-10-15T13:58:07.256Z,3.33
2022-10-15T14:09:06.803Z,3.33
2022-10-15T14:20:26.375Z,3.33
2022-10-15T14:31:08.391Z,3.34
2022-10-15T14:42:08.339Z,3.37
2022-10-15T14:53:07.963Z,3.33
2022-10-15T15:04:05.451Z,3.34
2022-10-15T15:15:05.237Z,3.36
2022-10-15T15:26:03.155Z,3.34
2022-10-15T15:36:57.960Z,3.34
2022-10-15T15:47:57.522Z,3.32
2022-10-15T15:58:56.398Z,3.30
2022-10-15T16:09:29.999Z,3.27
2022-10-15T16:20:29.388Z,3.26
2022-10-15T16:31:10.549Z,3.25
2022-10-15T16:42:11.224Z,3.25
2022-10-15T16:52:45.598Z,3.23
2022-10-15T17:03:24.782Z,3.21
2022-10-15T17:14:03.903Z,3.20
2022-10-15T17:24:52.657Z,3.19
2022-10-15T17:35:47.053Z,3.19
2022-10-15T17:46:41.918Z,3.18
2022-10-15T17:57:40.788Z,3.18
2022-10-15T18:08:16.348Z,3.16
2022-10-15T18:18:52.229Z,3.15
2022-10-15T18:29:30.769Z,3.14
2022-10-15T18:40:26.379Z,3.14
2022-10-15T18:51:24.277Z,3.14
2022-10-15T19:02:00.637Z,3.12
2022-10-15T19:12:43.676Z,3.12
2022-10-15T19:23:42.988Z,3.11
2022-10-15T19:34:41.655Z,3.11
2022-10-15T19:45:42.076Z,3.11
2022-10-15T19:56:41.778Z,3.11
2022-10-15T20:07:34.904Z,3.11
2022-10-15T20:18:35.360Z,3.10
2022-10-15T20:29:24.529Z,3.10
2022-10-15T20:40:24.935Z,3.10
2022-10-15T20:51:21.408Z,3.09
2022-10-15T21:02:20.608Z,3.09
2022-10-15T21:13:18.137Z,3.08
2022-10-15T21:24:17.935Z,3.08
2022-10-15T21:35:17.526Z,3.07
2022-10-15T21:46:13.768Z,3.07
2022-10-15T21:57:11.992Z,3.07
2022-10-15T22:08:13.538Z,3.06
2022-10-15T22:19:11.617Z,3.06
2022-10-15T22:30:13.037Z,3.06
2022-10-15T22:41:11.985Z,3.06
2022-10-15T22:52:10.663Z,3.05
2022-10-15T23:03:10.104Z,3.05
2022-10-15T23:14:11.412Z,3.05
2022-10-15T23:25:11.160Z,3.04
2022-10-15T23:36:05.399Z,3.04
2022-10-15T23:47:06.145Z,3.04
2022-10-15T23:58:07.027Z,3.03
